Springfield, Illinois
Current Conditions -  °F | °C
As of 1:52 PM on Friday 19 Dec 2014 (Local Time) from KSPI Reporting Station
Overcast Overcast  
Wind Chill: 31°   Ceiling: 4400
Heat Index: 35°   Visibility: 10mi
Dew Point: 22°   Wind: 5mph
Humidity: 59%   Direction: 220°SW
Pressure: 30.31"   Gusts: NA
Location:  39.8°N, 89.64°W
Report Text: KSPI 191952Z 22004KT 10SM OVC044 02/M06 A3031 RMK AO2 SLP269 T00171056
Loading
Personal Weather Stations






























Interactive Weather Map New forecast layout! Learn more

10-Day Weather Forecast

Advertisements
Track Severe Weather on mobile